Time;durP1;ratioP1;P1;durP2;ratioP2;P2;SDS_P1;SDS_P2;PMS_P1;PMS_P2;Temp;Humidity;BMP_temperature;BMP_pressure;BME280_temperature;BME280_humidity;BME280_pressure;Samples;Min_cycle;Max_cycle;Signal;HPM_P1;HPM_P2
2024/05/08 00:01:06;;;;;;;49.58;22.50;;;;;;;;;;5331954;26;20090;-81
2024/05/08 00:03:32;;;;;;;42.65;20.25;;;;;;;;;;5302083;26;20005;-81
2024/05/08 00:05:59;;;;;;;42.15;19.35;;;;;;;;;;5301160;26;20020;-79
2024/05/08 00:08:24;;;;;;;37.95;17.55;;;;;;;;;;5342212;26;20332;-80
2024/05/08 00:10:49;;;;;;;31.23;17.00;;;;;;;;;;5300126;26;20435;-80
2024/05/08 00:13:15;;;;;;;30.40;15.57;;;;;;;;;;5329303;26;20099;-79
2024/05/08 00:15:40;;;;;;;32.08;16.25;;;;;;;;;;5331743;26;20001;-80
2024/05/08 00:18:06;;;;;;;29.35;15.23;;;;;;;;;;5324198;26;20028;-80
2024/05/08 00:20:32;;;;;;;28.05;14.13;;;;;;;;;;5322936;26;20090;-80
2024/05/08 00:22:58;;;;;;;29.55;15.95;;;;;;;;;;5295844;26;20008;-79
2024/05/08 00:25:23;;;;;;;28.80;15.15;;;;;;;;;;5332309;26;20470;-79
2024/05/08 00:27:48;;;;;;;28.77;15.13;;;;;;;;;;5301256;26;20008;-80
2024/05/08 00:30:14;;;;;;;29.55;13.65;;;;;;;;;;5301092;26;19997;-80
2024/05/08 00:32:39;;;;;;;29.42;14.98;;;;;;;;;;5301896;26;20367;-79
2024/05/08 00:35:05;;;;;;;26.55;14.07;;;;;;;;;;5311959;26;19997;-80
2024/05/08 00:37:31;;;;;;;29.65;14.68;;;;;;;;;;5331530;26;20005;-80
2024/05/08 00:39:57;;;;;;;26.20;13.55;;;;;;;;;;5332176;26;20012;-79
2024/05/08 00:42:22;;;;;;;30.35;16.30;;;;;;;;;;5292554;26;20072;-80
2024/05/08 00:44:48;;;;;;;30.00;14.35;;;;;;;;;;5319666;26;19997;-80
2024/05/08 00:47:15;;;;;;;28.48;15.02;;;;;;;;;;5332011;26;20079;-80
2024/05/08 00:49:41;;;;;;;30.38;15.70;;;;;;;;;;5299574;26;20001;-80
2024/05/08 00:52:06;;;;;;;29.63;15.55;;;;;;;;;;5287029;27;20462;-81
2024/05/08 00:54:32;;;;;;;30.60;15.35;;;;;;;;;;5319498;26;20001;-80
2024/05/08 00:56:59;;;;;;;30.00;14.30;;;;;;;;;;5300608;26;20028;-80
2024/05/08 00:59:25;;;;;;;26.92;14.18;;;;;;;;;;5331787;26;20003;-80
2024/05/08 01:01:51;;;;;;;29.73;14.07;;;;;;;;;;5333331;26;20001;-80
2024/05/08 01:04:17;;;;;;;29.08;14.63;;;;;;;;;;5313080;26;20016;-80
2024/05/08 01:06:45;;;;;;;27.17;13.90;;;;;;;;;;5335331;26;20004;-80
2024/05/08 01:09:11;;;;;;;24.50;13.70;;;;;;;;;;5333216;26;20025;-80
2024/05/08 01:11:47;;;;;;;27.10;14.35;;;;;;;;;;5333898;26;20001;-80
2024/05/08 01:14:13;;;;;;;25.55;12.80;;;;;;;;;;5270791;26;20468;-81
2024/05/08 01:16:39;;;;;;;21.17;11.10;;;;;;;;;;5303975;26;20000;-81
2024/05/08 01:19:06;;;;;;;24.85;12.88;;;;;;;;;;5334177;26;20001;-81
2024/05/08 01:21:32;;;;;;;23.90;12.88;;;;;;;;;;5330040;26;20009;-81
2024/05/08 01:23:57;;;;;;;23.08;12.10;;;;;;;;;;5332792;26;20091;-80
2024/05/08 01:26:22;;;;;;;25.30;13.35;;;;;;;;;;5322044;26;20010;-80
2024/05/08 01:28:48;;;;;;;26.25;12.73;;;;;;;;;;5324284;26;20013;-80
2024/05/08 01:31:13;;;;;;;25.35;13.30;;;;;;;;;;5324705;26;20710;-81
2024/05/08 01:33:38;;;;;;;22.02;11.43;;;;;;;;;;5330191;26;20013;-79
2024/05/08 01:36:04;;;;;;;23.75;12.10;;;;;;;;;;5329270;26;20009;-80
2024/05/08 01:38:29;;;;;;;22.90;11.73;;;;;;;;;;5285651;26;20335;-80
2024/05/08 01:40:55;;;;;;;19.33;10.68;;;;;;;;;;5326203;26;20980;-81
2024/05/08 01:43:20;;;;;;;21.30;11.85;;;;;;;;;;5310457;26;20016;-80
2024/05/08 01:45:45;;;;;;;20.25;10.25;;;;;;;;;;5300043;26;20037;-80
2024/05/08 01:48:11;;;;;;;20.73;10.30;;;;;;;;;;5292941;26;19998;-81
2024/05/08 01:50:36;;;;;;;18.98;10.30;;;;;;;;;;5281487;26;20464;-81
2024/05/08 01:53:02;;;;;;;18.85;10.63;;;;;;;;;;5323375;26;20082;-79
2024/05/08 01:55:27;;;;;;;19.40;10.10;;;;;;;;;;5303271;26;20007;-80
2024/05/08 01:57:52;;;;;;;19.48;10.63;;;;;;;;;;5339063;26;20065;-79
2024/05/08 02:00:18;;;;;;;24.70;12.23;;;;;;;;;;5331297;26;20005;-79
2024/05/08 02:02:45;;;;;;;21.52;10.90;;;;;;;;;;5333937;26;20016;-80
2024/05/08 02:05:11;;;;;;;18.20;10.13;;;;;;;;;;5304294;26;20003;-79
2024/05/08 02:07:36;;;;;;;20.38;10.23;;;;;;;;;;5332725;26;19996;-80
2024/05/08 02:10:01;;;;;;;23.42;10.98;;;;;;;;;;5304719;26;20001;-79
2024/05/08 02:12:27;;;;;;;20.52;10.10;;;;;;;;;;5302404;26;20001;-80
2024/05/08 02:14:52;;;;;;;20.75;10.57;;;;;;;;;;5316758;26;20001;-80
2024/05/08 02:17:17;;;;;;;18.25;10.13;;;;;;;;;;5317327;26;20005;-81
2024/05/08 02:19:43;;;;;;;20.48;11.57;;;;;;;;;;5329038;26;20009;-79
2024/05/08 02:22:08;;;;;;;20.83;10.95;;;;;;;;;;5310434;26;20330;-79
2024/05/08 02:24:33;;;;;;;18.20;10.48;;;;;;;;;;5334488;26;20008;-79
2024/05/08 02:26:59;;;;;;;22.55;10.73;;;;;;;;;;5316203;26;20002;-80
2024/05/08 02:29:24;;;;;;;21.55;10.82;;;;;;;;;;5302460;26;19997;-80
2024/05/08 02:31:50;;;;;;;21.17;10.43;;;;;;;;;;5303700;26;20015;-79
2024/05/08 02:34:15;;;;;;;23.48;11.07;;;;;;;;;;5304217;26;20005;-79
2024/05/08 02:36:41;;;;;;;21.77;10.75;;;;;;;;;;5303261;26;20029;-80
2024/05/08 02:39:07;;;;;;;21.70;11.10;;;;;;;;;;5333948;26;20007;-80
2024/05/08 02:41:33;;;;;;;22.05;10.30;;;;;;;;;;5333818;26;19997;-79
2024/05/08 02:43:59;;;;;;;19.55;10.38;;;;;;;;;;5302804;26;20019;-80
2024/05/08 02:46:24;;;;;;;20.63;10.80;;;;;;;;;;5301780;26;20009;-80
2024/05/08 02:48:49;;;;;;;19.15;10.45;;;;;;;;;;5303774;26;20001;-79
2024/05/08 02:51:15;;;;;;;19.70;11.00;;;;;;;;;;5304147;26;20336;-80
2024/05/08 02:53:40;;;;;;;23.90;10.77;;;;;;;;;;5332662;26;20427;-79
2024/05/08 02:56:06;;;;;;;20.00;10.82;;;;;;;;;;5327039;26;20013;-80
2024/05/08 02:58:31;;;;;;;19.90;10.45;;;;;;;;;;5331723;26;20020;-80
2024/05/08 03:00:56;;;;;;;20.35;11.23;;;;;;;;;;5331686;26;19993;-80
2024/05/08 03:03:22;;;;;;;18.08;9.75;;;;;;;;;;5303218;26;19997;-79
2024/05/08 03:05:47;;;;;;;17.35;9.48;;;;;;;;;;5302707;26;20051;-80
2024/05/08 03:08:13;;;;;;;20.73;11.05;;;;;;;;;;5332365;26;20022;-80
2024/05/08 03:10:38;;;;;;;19.10;10.18;;;;;;;;;;5303102;26;19993;-81
2024/05/08 03:13:03;;;;;;;18.83;10.05;;;;;;;;;;5332922;26;20320;-81
2024/05/08 03:15:29;;;;;;;20.60;11.38;;;;;;;;;;5328496;26;19997;-80
2024/05/08 03:17:55;;;;;;;21.05;10.73;;;;;;;;;;5332234;26;20439;-80
2024/05/08 03:20:21;;;;;;;21.23;10.63;;;;;;;;;;5331377;26;20033;-80
2024/05/08 03:22:46;;;;;;;20.52;10.38;;;;;;;;;;5332899;26;20541;-80
2024/05/08 03:25:13;;;;;;;26.73;12.02;;;;;;;;;;5332356;26;20001;-80
2024/05/08 03:27:38;;;;;;;24.30;11.07;;;;;;;;;;5332393;26;19996;-79
2024/05/08 03:30:04;;;;;;;21.13;10.65;;;;;;;;;;5303459;26;20033;-80
2024/05/08 03:32:29;;;;;;;20.67;11.23;;;;;;;;;;5331620;26;20000;-80
2024/05/08 03:34:55;;;;;;;20.48;11.02;;;;;;;;;;5332793;26;20005;-80
2024/05/08 03:37:20;;;;;;;21.80;11.65;;;;;;;;;;5330653;26;20041;-80
2024/05/08 03:39:45;;;;;;;23.02;11.82;;;;;;;;;;5302196;26;20001;-81
2024/05/08 03:42:11;;;;;;;22.55;11.40;;;;;;;;;;5302857;26;20087;-80
2024/05/08 03:44:37;;;;;;;25.10;11.90;;;;;;;;;;5313815;26;20009;-80
2024/05/08 03:47:03;;;;;;;20.58;10.93;;;;;;;;;;5314419;26;20078;-80
2024/05/08 03:49:28;;;;;;;27.02;11.48;;;;;;;;;;5320224;26;20024;-80
2024/05/08 03:51:53;;;;;;;22.90;11.23;;;;;;;;;;5322898;26;20115;-80
2024/05/08 03:54:19;;;;;;;27.55;12.20;;;;;;;;;;5347050;26;20090;-80
2024/05/08 03:56:44;;;;;;;23.17;11.55;;;;;;;;;;5308753;26;20453;-80
2024/05/08 03:59:10;;;;;;;21.95;10.52;;;;;;;;;;5302175;26;19997;-81
2024/05/08 04:01:42;;;;;;;23.88;11.40;;;;;;;;;;5301449;26;20001;-79
2024/05/08 04:04:07;;;;;;;24.90;11.98;;;;;;;;;;5300417;26;20086;-79
2024/05/08 04:06:33;;;;;;;23.85;11.68;;;;;;;;;;5301628;26;20397;-80
2024/05/08 04:08:58;;;;;;;19.60;10.77;;;;;;;;;;5331211;26;20009;-80
2024/05/08 04:11:23;;;;;;;21.45;11.07;;;;;;;;;;5300633;26;20033;-80
2024/05/08 04:13:49;;;;;;;19.58;11.05;;;;;;;;;;5298223;26;20029;-80
2024/05/08 04:16:14;;;;;;;24.08;11.57;;;;;;;;;;5331449;26;20001;-80
2024/05/08 04:18:43;;;;;;;24.20;11.10;;;;;;;;;;5327767;26;20438;-80
2024/05/08 04:21:08;;;;;;;24.33;11.45;;;;;;;;;;5287719;27;20002;-80
2024/05/08 04:23:34;;;;;;;24.67;11.70;;;;;;;;;;5290840;26;19997;-80
2024/05/08 04:25:59;;;;;;;22.77;11.57;;;;;;;;;;5301178;26;20005;-79
2024/05/08 04:28:24;;;;;;;22.10;10.82;;;;;;;;;;5331366;26;20467;-79
2024/05/08 04:30:50;;;;;;;23.08;11.20;;;;;;;;;;5330866;26;19993;-80
2024/05/08 04:33:15;;;;;;;21.20;11.10;;;;;;;;;;5331575;26;20064;-79
2024/05/08 04:35:41;;;;;;;24.92;11.13;;;;;;;;;;5328748;26;20075;-80
2024/05/08 04:38:09;;;;;;;21.70;10.40;;;;;;;;;;5301446;26;20008;-80
2024/05/08 04:40:35;;;;;;;21.90;11.27;;;;;;;;;;5335725;26;20352;-80
2024/05/08 04:43:00;;;;;;;26.27;11.10;;;;;;;;;;5304787;26;20054;-80
2024/05/08 04:45:25;;;;;;;18.58;9.65;;;;;;;;;;5315467;26;20739;-80
2024/05/08 04:47:51;;;;;;;18.40;9.30;;;;;;;;;;5300628;26;20020;-79
2024/05/08 04:50:17;;;;;;;23.67;9.85;;;;;;;;;;5357275;26;20071;-80
2024/05/08 04:52:43;;;;;;;20.83;10.10;;;;;;;;;;5315023;26;20016;-79
2024/05/08 04:55:08;;;;;;;21.92;8.68;;;;;;;;;;5288744;26;20018;-79
2024/05/08 04:57:34;;;;;;;21.58;9.13;;;;;;;;;;5322607;26;19997;-80
2024/05/08 04:59:59;;;;;;;20.30;9.95;;;;;;;;;;5326738;26;19997;-80
2024/05/08 05:02:24;;;;;;;27.38;10.00;;;;;;;;;;5327001;26;20001;-80
2024/05/08 05:04:50;;;;;;;21.88;9.88;;;;;;;;;;5333750;26;19997;-80
2024/05/08 05:07:15;;;;;;;20.38;9.68;;;;;;;;;;5322500;26;20002;-80
2024/05/08 05:09:41;;;;;;;22.60;9.63;;;;;;;;;;5302490;26;20012;-79
2024/05/08 05:12:07;;;;;;;21.73;9.88;;;;;;;;;;5334221;26;20013;-80
2024/05/08 05:14:32;;;;;;;18.70;9.77;;;;;;;;;;5332249;26;20012;-79
2024/05/08 05:16:59;;;;;;;19.50;9.52;;;;;;;;;;5304480;26;20013;-80
2024/05/08 05:19:24;;;;;;;21.77;9.48;;;;;;;;;;5302109;26;20424;-79
2024/05/08 05:21:49;;;;;;;18.00;9.00;;;;;;;;;;5294927;26;20006;-80
2024/05/08 05:24:15;;;;;;;17.45;8.80;;;;;;;;;;5299600;26;20013;-81
2024/05/08 05:26:40;;;;;;;18.38;9.15;;;;;;;;;;5326004;26;20012;-80
2024/05/08 05:29:05;;;;;;;19.08;8.82;;;;;;;;;;5330303;26;20609;-80
2024/05/08 05:34:15;;;;;;;20.23;9.43;;;;;;;;;;5323645;26;20020;-80
2024/05/08 05:36:40;;;;;;;22.63;9.27;;;;;;;;;;5304914;26;20410;-81
2024/05/08 05:39:06;;;;;;;22.63;9.50;;;;;;;;;;5334468;26;20011;-80
2024/05/08 05:41:32;;;;;;;21.83;10.00;;;;;;;;;;5321500;26;20001;-80
2024/05/08 05:46:41;;;;;;;16.88;9.43;;;;;;;;;;5334579;26;20016;-80
2024/05/08 05:49:06;;;;;;;17.95;9.07;;;;;;;;;;5304273;26;20005;-79
2024/05/08 05:51:32;;;;;;;17.48;8.95;;;;;;;;;;5294006;26;20451;-79
2024/05/08 05:53:57;;;;;;;19.23;9.15;;;;;;;;;;5333537;26;19993;-79
2024/05/08 05:56:23;;;;;;;23.10;7.60;;;;;;;;;;5300771;26;20012;-80
2024/05/08 05:58:49;;;;;;;16.90;8.55;;;;;;;;;;5284090;26;20012;-80
2024/05/08 06:01:17;;;;;;;16.52;7.97;;;;;;;;;;5324944;26;20008;-81
2024/05/08 06:03:42;;;;;;;15.98;8.48;;;;;;;;;;5328752;26;20012;-80
2024/05/08 06:06:08;;;;;;;16.27;8.40;;;;;;;;;;5295544;26;20001;-81
2024/05/08 06:08:34;;;;;;;20.98;8.48;;;;;;;;;;5297824;26;20438;-80
2024/05/08 06:10:59;;;;;;;16.42;7.75;;;;;;;;;;5316303;26;20004;-80
2024/05/08 06:13:26;;;;;;;14.95;8.48;;;;;;;;;;5324620;26;20005;-80
2024/05/08 06:15:52;;;;;;;22.20;9.10;;;;;;;;;;5293763;26;19998;-81
2024/05/08 06:18:17;;;;;;;19.38;8.63;;;;;;;;;;5308045;26;19998;-80
2024/05/08 06:20:43;;;;;;;17.33;8.90;;;;;;;;;;5325951;26;20082;-80
2024/05/08 06:23:08;;;;;;;15.38;7.82;;;;;;;;;;5301697;26;20009;-80
2024/05/08 06:25:38;;;;;;;18.63;8.32;;;;;;;;;;5326403;26;20351;-81
2024/05/08 06:28:05;;;;;;;17.85;7.85;;;;;;;;;;5300992;26;20021;-81
2024/05/08 06:30:30;;;;;;;16.10;7.72;;;;;;;;;;5322731;26;20464;-81
2024/05/08 06:32:56;;;;;;;13.07;7.63;;;;;;;;;;5330287;26;20112;-80
2024/05/08 06:35:21;;;;;;;16.63;7.47;;;;;;;;;;5325071;26;20107;-82
2024/05/08 06:37:46;;;;;;;15.90;7.60;;;;;;;;;;5285601;26;20001;-81
2024/05/08 06:40:12;;;;;;;15.15;8.07;;;;;;;;;;5309178;26;20008;-82
2024/05/08 06:42:39;;;;;;;16.10;7.93;;;;;;;;;;5333363;26;20011;-81
2024/05/08 06:45:05;;;;;;;16.73;6.97;;;;;;;;;;5315706;26;20013;-80
2024/05/08 06:47:30;;;;;;;18.20;7.72;;;;;;;;;;5293314;26;20104;-80
2024/05/08 06:49:55;;;;;;;15.20;7.32;;;;;;;;;;5296655;26;20843;-82
2024/05/08 06:52:21;;;;;;;16.38;7.22;;;;;;;;;;5305574;26;20007;-83
2024/05/08 06:54:46;;;;;;;16.55;7.43;;;;;;;;;;5302993;26;19997;-83
2024/05/08 06:57:11;;;;;;;14.30;7.30;;;;;;;;;;5291514;26;20342;-81
2024/05/08 06:59:37;;;;;;;15.48;7.82;;;;;;;;;;5321773;26;20000;-81
2024/05/08 07:02:02;;;;;;;19.35;8.65;;;;;;;;;;5293801;27;20065;-82
2024/05/08 07:04:28;;;;;;;16.42;8.02;;;;;;;;;;5314687;26;20002;-81
2024/05/08 07:06:53;;;;;;;13.05;6.53;;;;;;;;;;5326421;26;20347;-82
2024/05/08 07:09:18;;;;;;;13.80;6.72;;;;;;;;;;5291116;26;20020;-82
2024/05/08 07:11:44;;;;;;;13.90;6.82;;;;;;;;;;5313804;26;20011;-81
2024/05/08 07:14:09;;;;;;;11.88;6.78;;;;;;;;;;5294963;26;20021;-81
2024/05/08 07:16:34;;;;;;;15.65;6.88;;;;;;;;;;5291715;26;20011;-80
2024/05/08 07:19:00;;;;;;;15.63;7.18;;;;;;;;;;5300062;26;20007;-81
2024/05/08 07:21:25;;;;;;;14.73;7.43;;;;;;;;;;5332944;26;20005;-82
2024/05/08 07:23:51;;;;;;;13.32;7.28;;;;;;;;;;5303236;26;19996;-81
2024/05/08 07:26:16;;;;;;;12.00;6.97;;;;;;;;;;5302230;26;20025;-80
2024/05/08 07:28:41;;;;;;;16.30;7.30;;;;;;;;;;5303430;26;20443;-81
2024/05/08 07:31:07;;;;;;;13.15;7.70;;;;;;;;;;5332518;26;20402;-81
2024/05/08 07:33:33;;;;;;;13.57;6.80;;;;;;;;;;5303676;26;20013;-82
2024/05/08 07:35:58;;;;;;;17.80;9.13;;;;;;;;;;5301504;26;20010;-80
2024/05/08 07:38:26;;;;;;;15.88;7.65;;;;;;;;;;5330109;26;19997;-81
2024/05/08 07:40:52;;;;;;;16.95;7.15;;;;;;;;;;5298114;26;20005;-81
2024/05/08 07:43:17;;;;;;;15.48;7.20;;;;;;;;;;5292128;26;20011;-81
2024/05/08 07:45:43;;;;;;;13.25;7.28;;;;;;;;;;5322663;26;19996;-81
2024/05/08 07:48:12;;;;;;;19.05;8.05;;;;;;;;;;5303302;26;20335;-81
2024/05/08 07:50:37;;;;;;;11.95;7.20;;;;;;;;;;5318022;26;19997;-82
2024/05/08 07:53:03;;;;;;;16.50;8.40;;;;;;;;;;5324950;26;20016;-80
2024/05/08 07:55:30;;;;;;;20.25;7.70;;;;;;;;;;5299505;26;20732;-81
2024/05/08 07:57:56;;;;;;;14.65;7.43;;;;;;;;;;5294142;26;20026;-80
2024/05/08 08:00:21;;;;;;;11.68;6.93;;;;;;;;;;5332845;26;20020;-80
2024/05/08 08:02:47;;;;;;;14.57;7.35;;;;;;;;;;5295044;26;20020;-81
2024/05/08 08:05:12;;;;;;;13.43;7.40;;;;;;;;;;5298539;26;20006;-81
2024/05/08 08:07:40;;;;;;;14.48;6.82;;;;;;;;;;5285249;27;20096;-81
2024/05/08 08:10:06;;;;;;;13.52;6.97;;;;;;;;;;5280652;26;20034;-81
2024/05/08 08:12:35;;;;;;;14.50;6.55;;;;;;;;;;5287231;26;20113;-80
2024/05/08 08:15:04;;;;;;;13.43;7.07;;;;;;;;;;5280180;26;19999;-81
2024/05/08 08:17:36;;;;;;;13.02;6.07;;;;;;;;;;5297804;26;20420;-82
2024/05/08 08:20:02;;;;;;;14.38;7.38;;;;;;;;;;5302617;26;20008;-81
2024/05/08 08:22:31;;;;;;;13.40;7.43;;;;;;;;;;5299823;26;20005;-82
2024/05/08 08:24:57;;;;;;;13.07;6.78;;;;;;;;;;5300648;27;20010;-81
2024/05/08 08:27:22;;;;;;;12.95;7.05;;;;;;;;;;5300747;26;19997;-80
2024/05/08 08:29:48;;;;;;;13.13;6.75;;;;;;;;;;5302494;26;19993;-82
2024/05/08 08:32:13;;;;;;;14.80;7.60;;;;;;;;;;5287918;26;20090;-81
2024/05/08 08:34:39;;;;;;;13.02;6.82;;;;;;;;;;5291977;26;20001;-81
2024/05/08 08:37:04;;;;;;;13.40;7.03;;;;;;;;;;5299863;26;20017;-81
2024/05/08 08:39:29;;;;;;;13.82;7.13;;;;;;;;;;5295943;27;19998;-81
2024/05/08 08:42:07;;;;;;;12.77;6.72;;;;;;;;;;5298106;26;20006;-84
2024/05/08 08:44:35;;;;;;;13.20;6.93;;;;;;;;;;5283194;27;20002;-83
2024/05/08 08:47:03;;;;;;;14.70;7.38;;;;;;;;;;5300751;27;20335;-83
2024/05/08 08:49:34;;;;;;;12.23;6.82;;;;;;;;;;5302155;26;20387;-83
2024/05/08 08:52:02;;;;;;;18.08;7.72;;;;;;;;;;5330950;26;20487;-82
2024/05/08 08:54:28;;;;;;;17.30;7.85;;;;;;;;;;5301990;26;20005;-83
2024/05/08 08:56:56;;;;;;;16.98;7.30;;;;;;;;;;5281856;27;20077;-83
2024/05/08 08:59:32;;;;;;;13.40;7.30;;;;;;;;;;5302517;26;20462;-82
2024/05/08 09:01:59;;;;;;;17.30;8.38;;;;;;;;;;5302591;26;20013;-84
2024/05/08 09:04:25;;;;;;;15.93;8.32;;;;;;;;;;5300617;26;20000;-85
2024/05/08 09:06:52;;;;;;;14.70;9.35;;;;;;;;;;5322306;26;20011;-82
2024/05/08 09:09:17;;;;;;;14.70;8.48;;;;;;;;;;5281829;26;19997;-84
2024/05/08 09:11:43;;;;;;;18.27;8.00;;;;;;;;;;5330926;26;20020;-84
2024/05/08 09:14:14;;;;;;;10.30;6.57;;;;;;;;;;5301988;26;20005;-82
2024/05/08 09:16:39;;;;;;;13.18;7.25;;;;;;;;;;5335386;26;19993;-81
2024/05/08 09:19:05;;;;;;;10.80;6.90;;;;;;;;;;5301957;26;20114;-82
2024/05/08 09:21:30;;;;;;;10.75;6.63;;;;;;;;;;5332578;26;20459;-81
2024/05/08 09:23:55;;;;;;;16.17;7.65;;;;;;;;;;5333638;26;20079;-81
2024/05/08 09:26:21;;;;;;;14.55;7.57;;;;;;;;;;5292163;26;19997;-82
2024/05/08 09:28:48;;;;;;;12.20;7.05;;;;;;;;;;5288200;26;20913;-82
2024/05/08 09:31:14;;;;;;;12.73;7.63;;;;;;;;;;5292722;26;20006;-82
2024/05/08 09:33:40;;;;;;;10.45;6.35;;;;;;;;;;5290169;26;20017;-82
2024/05/08 09:36:05;;;;;;;11.88;6.90;;;;;;;;;;5331725;26;20017;-84
2024/05/08 09:38:30;;;;;;;14.55;7.22;;;;;;;;;;5294479;26;20076;-82
2024/05/08 09:40:57;;;;;;;13.02;7.22;;;;;;;;;;5300849;26;20000;-83
2024/05/08 09:43:24;;;;;;;15.20;6.88;;;;;;;;;;5274349;26;20075;-82
2024/05/08 09:45:57;;;;;;;10.73;6.90;;;;;;;;;;5292164;26;20011;-83
2024/05/08 09:48:26;;;;;;;12.17;7.20;;;;;;;;;;5293289;26;20070;-84
2024/05/08 09:50:52;;;;;;;19.08;7.55;;;;;;;;;;5279512;26;20886;-83
2024/05/08 09:53:27;;;;;;;10.18;6.43;;;;;;;;;;5308518;26;20397;-82
2024/05/08 09:55:58;;;;;;;11.77;7.28;;;;;;;;;;5319379;26;20056;-83
2024/05/08 09:58:23;;;;;;;16.10;6.78;;;;;;;;;;5325044;26;20108;-82
2024/05/08 10:00:50;;;;;;;11.80;7.20;;;;;;;;;;5317861;26;20345;-82
2024/05/08 10:03:16;;;;;;;14.25;7.20;;;;;;;;;;5328645;26;19998;-82
2024/05/08 10:05:51;;;;;;;13.90;7.05;;;;;;;;;;5318281;26;20467;-83
2024/05/08 10:08:16;;;;;;;12.18;6.78;;;;;;;;;;5331273;26;19997;-83
2024/05/08 10:10:47;;;;;;;15.48;6.82;;;;;;;;;;5294588;26;20011;-83
2024/05/08 10:13:17;;;;;;;10.48;6.72;;;;;;;;;;5283844;26;20002;-83
2024/05/08 10:15:53;;;;;;;14.65;7.72;;;;;;;;;;5317677;26;20033;-83
2024/05/08 10:18:28;;;;;;;15.25;7.32;;;;;;;;;;5288176;26;19993;-82
2024/05/08 10:21:09;;;;;;;13.18;6.95;;;;;;;;;;5289865;27;19997;-82
2024/05/08 10:23:56;;;;;;;11.07;6.53;;;;;;;;;;5296222;26;19993;-83
2024/05/08 10:26:30;;;;;;;10.50;6.63;;;;;;;;;;5309468;26;20004;-83
2024/05/08 10:28:56;;;;;;;11.77;7.53;;;;;;;;;;5298092;26;19993;-84
2024/05/08 10:31:22;;;;;;;11.85;7.25;;;;;;;;;;5316365;26;19997;-86
2024/05/08 10:33:54;;;;;;;11.13;7.53;;;;;;;;;;5315268;26;20088;-83
2024/05/08 10:36:28;;;;;;;13.50;8.63;;;;;;;;;;5303390;26;20008;-84
2024/05/08 10:39:12;;;;;;;14.98;7.95;;;;;;;;;;5285230;26;19993;-83
2024/05/08 10:41:38;;;;;;;26.25;20.13;;;;;;;;;;5324717;26;20005;-83
2024/05/08 10:44:04;;;;;;;14.18;8.63;;;;;;;;;;5330186;26;20004;-84
2024/05/08 10:46:29;;;;;;;13.70;8.23;;;;;;;;;;5321121;26;19997;-84
2024/05/08 10:48:56;;;;;;;15.63;8.68;;;;;;;;;;5321696;26;20093;-82
2024/05/08 10:51:23;;;;;;;15.98;7.82;;;;;;;;;;5330974;26;20401;-82
2024/05/08 10:54:14;;;;;;;11.95;7.85;;;;;;;;;;5450676;25;20334;-64
2024/05/08 10:56:41;;;;;;;14.43;7.10;;;;;;;;;;5434096;26;20005;-64
2024/05/08 10:59:10;;;;;;;12.43;7.35;;;;;;;;;;5435124;26;19999;-63
2024/05/08 11:01:46;;;;;;;12.13;7.45;;;;;;;;;;5438822;26;19998;-64
2024/05/08 11:04:28;;;;;;;16.67;8.35;;;;;;;;;;5418996;26;19999;-64
2024/05/08 11:07:04;;;;;;;14.02;7.32;;;;;;;;;;5413334;26;20003;-64
2024/05/08 11:09:43;;;;;;;11.35;6.90;;;;;;;;;;5396326;26;19991;-64
2024/05/08 11:12:10;;;;;;;11.88;7.38;;;;;;;;;;5404052;26;19996;-63
2024/05/08 11:14:35;;;;;;;17.52;8.27;;;;;;;;;;5401705;26;20027;-64
2024/05/08 11:17:00;;;;;;;14.15;7.95;;;;;;;;;;5370865;26;20051;-62
2024/05/08 11:19:26;;;;;;;11.93;7.43;;;;;;;;;;5395040;26;19997;-64
2024/05/08 11:21:51;;;;;;;12.98;7.28;;;;;;;;;;5363718;26;20004;-64
2024/05/08 11:24:16;;;;;;;13.73;7.28;;;;;;;;;;5411027;26;20055;-64
2024/05/08 11:26:42;;;;;;;13.70;7.38;;;;;;;;;;5404042;26;19995;-64
2024/05/08 11:29:08;;;;;;;12.68;6.78;;;;;;;;;;5403998;26;20000;-64
2024/05/08 11:31:35;;;;;;;9.00;6.57;;;;;;;;;;5397223;26;20077;-64
2024/05/08 11:34:00;;;;;;;11.10;6.00;;;;;;;;;;5404835;26;20550;-64
2024/05/08 11:36:26;;;;;;;10.02;5.75;;;;;;;;;;5399925;26;20015;-64
2024/05/08 11:38:51;;;;;;;11.30;6.43;;;;;;;;;;5399155;26;20441;-64
2024/05/08 11:41:16;;;;;;;12.63;6.65;;;;;;;;;;5405427;26;20518;-64
2024/05/08 11:43:43;;;;;;;8.40;5.70;;;;;;;;;;5402998;26;20351;-64
2024/05/08 11:46:09;;;;;;;12.85;5.88;;;;;;;;;;5398261;26;20453;-63
2024/05/08 11:48:34;;;;;;;8.75;5.85;;;;;;;;;;5388663;26;20006;-64
2024/05/08 11:51:00;;;;;;;11.60;5.10;;;;;;;;;;5402412;26;20344;-64
2024/05/08 11:53:25;;;;;;;9.10;4.93;;;;;;;;;;5401906;26;20437;-64
2024/05/08 11:55:50;;;;;;;13.20;6.53;;;;;;;;;;5404480;26;20026;-64
2024/05/08 11:58:16;;;;;;;7.90;5.32;;;;;;;;;;5397445;26;20004;-63
2024/05/08 12:00:41;;;;;;;14.13;6.20;;;;;;;;;;5404974;26;20067;-64
2024/05/08 12:03:06;;;;;;;13.18;5.45;;;;;;;;;;5401963;26;20007;-64
2024/05/08 12:05:32;;;;;;;9.55;5.13;;;;;;;;;;5375192;26;19991;-63
2024/05/08 12:07:57;;;;;;;10.23;5.25;;;;;;;;;;5388213;26;20084;-64
2024/05/08 12:10:22;;;;;;;8.50;5.07;;;;;;;;;;5385628;26;25473;-64
2024/05/08 12:12:48;;;;;;;8.65;5.82;;;;;;;;;;5391414;26;19992;-64
2024/05/08 12:15:13;;;;;;;9.02;5.18;;;;;;;;;;5386953;26;20448;-64
2024/05/08 12:17:38;;;;;;;12.25;5.50;;;;;;;;;;5382844;26;20365;-64
2024/05/08 12:20:04;;;;;;;8.27;5.00;;;;;;;;;;5388001;26;20007;-60
2024/05/08 12:22:30;;;;;;;8.77;5.20;;;;;;;;;;5389798;26;20015;-61
2024/05/08 12:24:55;;;;;;;18.33;5.95;;;;;;;;;;5390393;26;20051;-60
2024/05/08 12:27:20;;;;;;;21.67;6.97;;;;;;;;;;5387383;26;20741;-61
2024/05/08 12:29:46;;;;;;;8.00;5.35;;;;;;;;;;5381043;26;20445;-60
2024/05/08 12:32:12;;;;;;;9.55;5.75;;;;;;;;;;5390680;26;20040;-61
2024/05/08 12:34:38;;;;;;;15.05;6.10;;;;;;;;;;5389326;26;20007;-60
2024/05/08 12:37:03;;;;;;;10.85;6.40;;;;;;;;;;5385532;26;20026;-62
2024/05/08 12:39:29;;;;;;;11.93;7.13;;;;;;;;;;5389952;26;20011;-60
2024/05/08 12:41:54;;;;;;;15.65;7.65;;;;;;;;;;5389276;26;20682;-65
2024/05/08 12:44:20;;;;;;;14.95;6.75;;;;;;;;;;5388002;26;20014;-64
2024/05/08 12:46:45;;;;;;;11.73;7.75;;;;;;;;;;5381903;26;20498;-64
2024/05/08 12:49:10;;;;;;;23.77;9.10;;;;;;;;;;5383449;26;20509;-64
2024/05/08 12:51:36;;;;;;;12.52;7.35;;;;;;;;;;5388174;26;20023;-64
2024/05/08 12:54:01;;;;;;;13.00;8.45;;;;;;;;;;5389499;26;20004;-64
2024/05/08 12:56:27;;;;;;;12.65;7.18;;;;;;;;;;5384898;26;20026;-64
2024/05/08 12:58:52;;;;;;;15.45;8.20;;;;;;;;;;5395089;26;20038;-64
2024/05/08 13:01:17;;;;;;;13.00;7.40;;;;;;;;;;5385694;26;20011;-64
2024/05/08 13:03:46;;;;;;;15.05;7.78;;;;;;;;;;5387679;26;20068;-64
2024/05/08 13:06:12;;;;;;;13.65;7.93;;;;;;;;;;5389516;26;20004;-64
2024/05/08 13:08:37;;;;;;;13.68;7.72;;;;;;;;;;5387765;26;20020;-64
2024/05/08 13:11:02;;;;;;;14.52;7.78;;;;;;;;;;5387569;26;20011;-64
2024/05/08 13:13:29;;;;;;;12.10;8.32;;;;;;;;;;5385956;26;20073;-64
2024/05/08 13:15:54;;;;;;;13.88;8.98;;;;;;;;;;5381918;26;20582;-64
2024/05/08 13:18:22;;;;;;;13.77;8.05;;;;;;;;;;5384263;26;19996;-65
2024/05/08 13:20:47;;;;;;;14.60;8.88;;;;;;;;;;5389969;26;20604;-65
2024/05/08 13:23:13;;;;;;;14.90;8.80;;;;;;;;;;5388536;26;20011;-64
2024/05/08 13:25:39;;;;;;;14.27;8.73;;;;;;;;;;5382399;26;20065;-64
2024/05/08 13:28:04;;;;;;;17.55;8.70;;;;;;;;;;5383331;26;20000;-64
2024/05/08 13:30:30;;;;;;;14.88;8.68;;;;;;;;;;5385125;26;20603;-64
2024/05/08 13:32:55;;;;;;;15.50;8.07;;;;;;;;;;5387122;26;20007;-64
2024/05/08 13:35:20;;;;;;;15.75;9.23;;;;;;;;;;5382498;26;20005;-64
2024/05/08 13:37:46;;;;;;;13.70;8.40;;;;;;;;;;5383539;26;19996;-65
2024/05/08 13:40:12;;;;;;;15.18;8.73;;;;;;;;;;5382649;26;19996;-64
2024/05/08 13:42:37;;;;;;;14.05;9.00;;;;;;;;;;5387656;26;19996;-64
2024/05/08 13:45:03;;;;;;;17.33;8.73;;;;;;;;;;5387525;26;20003;-64
2024/05/08 13:47:28;;;;;;;14.13;7.75;;;;;;;;;;5386071;26;20006;-65
2024/05/08 13:49:54;;;;;;;15.00;8.90;;;;;;;;;;5382657;26;20011;-65
2024/05/08 13:52:19;;;;;;;17.42;9.20;;;;;;;;;;5380815;26;20005;-64
2024/05/08 13:54:45;;;;;;;17.85;9.48;;;;;;;;;;5388778;26;20010;-65
2024/05/08 13:57:10;;;;;;;24.35;11.52;;;;;;;;;;5387039;26;20010;-65
2024/05/08 13:59:37;;;;;;;21.48;11.23;;;;;;;;;;5384545;26;20000;-65
2024/05/08 14:02:03;;;;;;;23.75;11.43;;;;;;;;;;5382228;26;19996;-65
2024/05/08 14:04:28;;;;;;;21.92;11.75;;;;;;;;;;5386260;26;20018;-65
2024/05/08 14:06:53;;;;;;;25.08;10.75;;;;;;;;;;5383967;26;19997;-65
2024/05/08 14:09:19;;;;;;;20.55;11.27;;;;;;;;;;5381515;26;20004;-65
2024/05/08 14:11:45;;;;;;;21.65;10.48;;;;;;;;;;5391512;26;20010;-65
2024/05/08 14:14:10;;;;;;;20.45;9.43;;;;;;;;;;5389970;26;20007;-65
2024/05/08 14:16:35;;;;;;;21.63;9.60;;;;;;;;;;5380258;26;20036;-65
2024/05/08 14:19:02;;;;;;;19.08;9.00;;;;;;;;;;5389563;26;20027;-64
2024/05/08 14:21:29;;;;;;;15.02;6.85;;;;;;;;;;5388713;26;20011;-65
2024/05/08 14:23:55;;;;;;;15.15;7.47;;;;;;;;;;5394225;26;20010;-65
2024/05/08 14:26:20;;;;;;;12.93;6.45;;;;;;;;;;5390385;26;20000;-65